createdAt,value
2022-07-30T00:00:24.968Z,101940.81
2022-07-30T00:02:53.831Z,101928.03
2022-07-30T00:05:20.897Z,101930.16
2022-07-30T00:07:48.287Z,101932.81
2022-07-30T00:10:15.245Z,101946.22
2022-07-30T00:12:42.060Z,101933.38
2022-07-30T00:15:09.663Z,101937.22
2022-07-30T00:17:36.548Z,101934.44
2022-07-30T00:20:06.191Z,101933.16
2022-07-30T00:22:33.146Z,101929.94
2022-07-30T00:24:59.978Z,101918.91
2022-07-30T00:27:27.218Z,101930.16
2022-07-30T00:29:53.979Z,101922.78
2022-07-30T00:32:20.832Z,101920.22
2022-07-30T00:34:47.674Z,101924.94
2022-07-30T00:37:15.919Z,101920.13
2022-07-30T00:39:43.153Z,101919.47
2022-07-30T00:42:10.162Z,101918.91
2022-07-30T00:44:37.114Z,101917.63
2022-07-30T00:47:07.931Z,101913.44
2022-07-30T00:49:34.774Z,101918.78
2022-07-30T00:52:01.531Z,101910.66
2022-07-30T00:54:30.848Z,101900.91
2022-07-30T00:56:57.729Z,101888.69
2022-07-30T00:59:24.862Z,101905.09
2022-07-30T01:01:51.774Z,101908.00
2022-07-30T01:04:18.716Z,101900.91
2022-07-30T01:06:45.591Z,101905.31
2022-07-30T01:09:12.439Z,101898.88
2022-07-30T01:11:42.491Z,101903.59
2022-07-30T01:14:10.038Z,101896.72
2022-07-30T01:16:39.104Z,101898.66
2022-07-30T01:19:30.308Z,101896.84
2022-07-30T01:22:07.212Z,101891.50
2022-07-30T01:24:39.860Z,101879.38
2022-07-30T01:27:08.720Z,101880.03
2022-07-30T01:29:37.922Z,101886.56
2022-07-30T01:32:07.825Z,101880.13
2022-07-30T01:34:37.152Z,101885.06
2022-07-30T01:37:08.579Z,101890.41
2022-07-30T01:39:37.228Z,101885.16
2022-07-30T01:42:07.497Z,101880.56
2022-07-30T01:44:38.073Z,101881.75
2022-07-30T01:47:06.528Z,101882.03
2022-07-30T01:49:36.687Z,101891.78
2022-07-30T01:52:05.368Z,101897.16
2022-07-30T01:54:33.755Z,101883.25
2022-07-30T01:57:02.911Z,101879.69
2022-07-30T01:59:31.808Z,101874.63
2022-07-30T02:02:00.648Z,101889.34
2022-07-30T02:04:27.797Z,101892.97
2022-07-30T02:07:01.885Z,101881.63
2022-07-30T02:09:33.859Z,101885.69
2022-07-30T02:12:21.224Z,101886.88
2022-07-30T02:14:52.524Z,101882.19
2022-07-30T02:17:26.610Z,101882.06
2022-07-30T02:19:59.112Z,101888.72
2022-07-30T02:22:33.389Z,101885.84
2022-07-30T02:25:01.702Z,101887.34
2022-07-30T02:27:33.588Z,101894.22
2022-07-30T02:30:03.685Z,101892.00
2022-07-30T02:32:34.954Z,101892.00
2022-07-30T02:35:10.461Z,101884.06
2022-07-30T02:37:43.307Z,101895.81
2022-07-30T02:40:15.773Z,101888.31
2022-07-30T02:42:45.573Z,101893.97
2022-07-30T02:45:17.885Z,101899.84
2022-07-30T02:47:48.996Z,101898.13
2022-07-30T02:50:17.897Z,101903.78
2022-07-30T02:52:45.330Z,101897.56
2022-07-30T02:55:13.175Z,101903.47
2022-07-30T02:57:43.343Z,101905.59
2022-07-30T03:00:12.443Z,101903.53
2022-07-30T03:02:43.608Z,101906.63
2022-07-30T03:05:14.904Z,101909.59
2022-07-30T03:07:42.865Z,101898.88
2022-07-30T03:10:11.877Z,101899.75
2022-07-30T03:12:40.594Z,101902.13
2022-07-30T03:15:08.445Z,101910.53
2022-07-30T03:17:45.716Z,101905.59
2022-07-30T03:20:18.588Z,101907.56
2022-07-30T03:22:50.951Z,101905.88
2022-07-30T03:25:25.954Z,101897.97
2022-07-30T03:27:57.568Z,101894.84
2022-07-30T03:30:25.763Z,101891.78
2022-07-30T03:32:55.619Z,101890.81
2022-07-30T03:35:30.430Z,101896.47
2022-07-30T03:38:00.145Z,101892.75
2022-07-30T03:40:29.049Z,101888.66
2022-07-30T03:42:56.448Z,101895.03
2022-07-30T03:45:25.321Z,101889.81
2022-07-30T03:47:57.841Z,101895.22
2022-07-30T03:50:27.193Z,101893.34
2022-07-30T03:52:54.202Z,101895.63
2022-07-30T03:55:22.027Z,101898.28
2022-07-30T03:57:49.260Z,101892.94
2022-07-30T04:00:18.304Z,101894.47
2022-07-30T04:02:50.466Z,101899.22
2022-07-30T04:05:41.134Z,101907.44
2022-07-30T04:08:08.512Z,101913.84
2022-07-30T04:10:35.740Z,101906.13
2022-07-30T04:13:21.126Z,101902.88
2022-07-30T04:16:05.923Z,101918.91
2022-07-30T04:18:47.695Z,101914.63
2022-07-30T04:21:18.731Z,101917.19
2022-07-30T04:24:04.840Z,101928.47
2022-07-30T04:26:34.686Z,101920.44
2022-07-30T04:29:02.654Z,101928.25
2022-07-30T04:31:37.461Z,101927.78
2022-07-30T04:34:28.065Z,101926.72
2022-07-30T04:36:56.448Z,101930.94
2022-07-30T04:39:23.471Z,101920.25
2022-07-30T04:41:50.610Z,101925.19
2022-07-30T04:44:35.104Z,101924.22
2022-07-30T04:47:34.281Z,101921.38
2022-07-30T04:50:23.102Z,101917.13
2022-07-30T04:52:53.735Z,101916.00
2022-07-30T04:55:26.733Z,101921.91
2022-07-30T04:57:55.064Z,101919.94
2022-07-30T05:00:22.359Z,101926.69
2022-07-30T05:02:52.915Z,101930.03
2022-07-30T05:05:21.885Z,101928.66
2022-07-30T05:07:49.348Z,101926.66
2022-07-30T05:10:19.876Z,101927.00
2022-07-30T05:12:47.088Z,101911.16
2022-07-30T05:15:16.540Z,101921.69
2022-07-30T05:17:45.209Z,101925.66
2022-07-30T05:20:13.257Z,101924.75
2022-07-30T05:23:15.296Z,101926.50
2022-07-30T05:25:48.877Z,101925.53
2022-07-30T05:28:27.734Z,101923.09
2022-07-30T05:30:56.322Z,101929.22
2022-07-30T05:33:40.929Z,101922.03
2022-07-30T05:36:11.618Z,101927.81
2022-07-30T05:38:39.631Z,101931.34
2022-07-30T05:41:32.792Z,101936.03
2022-07-30T05:44:24.324Z,101948.34
2022-07-30T05:46:52.282Z,101945.97
2022-07-30T05:49:19.832Z,101941.66
2022-07-30T05:51:46.899Z,101949.53
2022-07-30T05:54:14.212Z,101954.84
2022-07-30T05:57:01.174Z,101958.03
2022-07-30T05:59:47.562Z,101959.25
2022-07-30T06:02:24.733Z,101965.72
2022-07-30T06:05:10.397Z,101961.63
2022-07-30T06:07:37.292Z,101966.16
2022-07-30T06:10:06.618Z,101973.31
2022-07-30T06:12:35.198Z,101956.25
2022-07-30T06:15:02.838Z,101958.97
2022-07-30T06:17:41.304Z,101964.84
2022-07-30T06:20:21.590Z,101970.75
2022-07-30T06:23:12.319Z,101978.63
2022-07-30T06:25:59.379Z,101965.66
2022-07-30T06:28:37.472Z,101968.25
2022-07-30T06:31:10.087Z,101964.72
2022-07-30T06:33:37.973Z,101970.06
2022-07-30T06:36:05.329Z,101968.34
2022-07-30T06:38:41.059Z,101970.69
2022-07-30T06:41:12.837Z,101974.25
2022-07-30T06:43:52.843Z,101976.44
2022-07-30T06:46:38.118Z,101980.72
2022-07-30T06:49:05.157Z,101976.81
2022-07-30T06:51:32.906Z,101983.03
2022-07-30T06:54:00.553Z,101976.31
2022-07-30T06:56:36.533Z,101977.53
2022-07-30T06:59:07.547Z,101968.34
2022-07-30T07:01:54.754Z,101983.69
2022-07-30T07:04:23.298Z,101968.44
2022-07-30T07:06:50.300Z,101970.81
2022-07-30T07:09:26.048Z,101974.09
2022-07-30T07:12:14.369Z,101979.03
2022-07-30T07:14:45.200Z,101967.09
2022-07-30T07:17:13.051Z,101972.84
2022-07-30T07:20:00.020Z,101963.59
2022-07-30T07:22:32.592Z,101973.97
2022-07-30T07:24:59.379Z,101972.06
2022-07-30T07:27:30.058Z,101967.78
2022-07-30T07:30:05.983Z,101972.19
2022-07-30T07:32:36.771Z,101966.81
2022-07-30T07:35:04.856Z,101964.44
2022-07-30T07:37:34.193Z,101971.97
2022-07-30T07:40:01.193Z,101979.91
2022-07-30T07:42:31.344Z,101977.09
2022-07-30T07:44:58.410Z,101985.00
2022-07-30T07:47:26.742Z,101988.88
2022-07-30T07:50:08.342Z,101986.66
2022-07-30T07:52:35.615Z,101986.94
2022-07-30T07:55:02.904Z,101986.09
2022-07-30T07:57:31.891Z,101982.66
2022-07-30T08:00:00.466Z,101975.88
2022-07-30T08:02:32.594Z,101982.66
2022-07-30T08:05:05.933Z,101969.91
2022-07-30T08:07:50.821Z,101976.81
2022-07-30T08:10:36.443Z,101976.06
2022-07-30T08:13:52.507Z,101979.25
2022-07-30T08:16:30.520Z,101990.16
2022-07-30T08:19:21.358Z,101981.50
2022-07-30T08:22:12.139Z,101988.81
2022-07-30T08:24:40.509Z,101990.38
2022-07-30T08:27:07.356Z,101999.38
2022-07-30T08:29:34.514Z,101986.22
2022-07-30T08:32:02.395Z,101999.06
2022-07-30T08:34:33.661Z,101994.47
2022-07-30T08:37:03.128Z,101999.13
2022-07-30T08:39:30.042Z,101990.81
2022-07-30T08:41:58.444Z,101984.91
2022-07-30T08:44:26.444Z,101993.56
2022-07-30T08:46:56.357Z,101985.78
2022-07-30T08:49:54.041Z,101989.28
2022-07-30T08:52:28.384Z,101993.00
2022-07-30T08:54:59.992Z,101992.03
2022-07-30T08:57:30.112Z,101996.69
2022-07-30T09:00:00.667Z,101995.50
2022-07-30T09:02:31.350Z,101998.44
2022-07-30T09:05:04.679Z,101993.56
2022-07-30T09:07:32.638Z,101996.38
2022-07-30T09:10:00.875Z,102005.28
2022-07-30T09:12:33.848Z,102007.38
2022-07-30T09:15:04.068Z,102013.66
2022-07-30T09:17:47.648Z,102013.03
2022-07-30T09:20:16.355Z,102013.41
2022-07-30T09:22:46.277Z,102019.31
2022-07-30T09:25:43.943Z,102014.06
2022-07-30T09:28:31.399Z,102016.13
2022-07-30T09:31:17.541Z,102010.97
2022-07-30T09:34:02.728Z,102013.66
2022-07-30T09:36:49.588Z,102008.63
2022-07-30T09:39:33.229Z,102003.00
2022-07-30T09:42:20.347Z,102004.28
2022-07-30T09:44:48.161Z,102011.75
2022-07-30T09:47:30.949Z,102001.56
2022-07-30T09:50:07.510Z,102000.22
2022-07-30T09:52:43.974Z,102011.44
2022-07-30T09:55:29.829Z,102006.47
2022-07-30T09:57:59.382Z,102006.16
2022-07-30T10:00:30.444Z,101994.75
2022-07-30T10:03:21.966Z,102001.50
2022-07-30T10:06:19.333Z,101998.28
2022-07-30T10:08:51.346Z,101997.06
2022-07-30T10:11:23.648Z,102000.38
2022-07-30T10:13:57.128Z,101998.13
2022-07-30T10:16:26.302Z,101989.84
2022-07-30T10:18:57.502Z,101992.66
2022-07-30T10:21:43.360Z,101992.16
2022-07-30T10:24:27.609Z,101998.84
2022-07-30T10:27:20.741Z,101998.56
2022-07-30T10:30:13.866Z,101993.22
2022-07-30T10:32:42.245Z,101994.13
2022-07-30T10:35:10.162Z,102005.00
2022-07-30T10:37:40.708Z,101994.25
2022-07-30T10:40:19.765Z,102000.75
2022-07-30T10:43:17.277Z,101989.84
2022-07-30T10:45:50.285Z,101999.03
2022-07-30T10:48:19.560Z,101999.50
2022-07-30T10:50:52.253Z,101999.66
2022-07-30T10:53:39.578Z,102003.53
2022-07-30T10:56:18.159Z,102001.88
2022-07-30T10:59:04.844Z,102002.22
2022-07-30T11:02:08.833Z,102003.63
2022-07-30T11:04:36.092Z,102003.53
2022-07-30T11:07:30.131Z,102009.44
2022-07-30T11:10:09.228Z,102005.63
2022-07-30T11:12:55.537Z,102005.22
2022-07-30T11:15:22.884Z,102011.22
2022-07-30T11:18:11.297Z,101997.47
2022-07-30T11:20:40.765Z,102007.66
2022-07-30T11:23:35.407Z,102004.84
2022-07-30T11:26:02.733Z,101998.28
2022-07-30T11:28:37.094Z,101996.31
2022-07-30T11:31:24.349Z,102003.66
2022-07-30T11:34:26.189Z,102004.94
2022-07-30T11:37:18.373Z,102005.34
2022-07-30T11:40:09.644Z,102008.69
2022-07-30T11:42:38.651Z,102003.91
2022-07-30T11:45:29.421Z,101997.97
2022-07-30T11:47:59.903Z,102006.06
2022-07-30T11:50:28.689Z,101997.13
2022-07-30T11:52:56.496Z,101994.03
2022-07-30T11:55:25.500Z,102000.81
2022-07-30T11:57:52.590Z,102003.66
2022-07-30T12:00:19.716Z,102002.56
2022-07-30T12:05:26.052Z,102005.09
2022-07-30T12:07:57.323Z,102007.94
2022-07-30T12:10:26.941Z,102010.22
2022-07-30T12:13:07.993Z,102008.94
2022-07-30T12:15:37.149Z,102007.59
2022-07-30T12:18:25.223Z,102009.59
2022-07-30T12:20:57.677Z,102012.84
2022-07-30T12:23:27.687Z,102016.03
2022-07-30T12:25:55.078Z,102011.78
2022-07-30T12:28:23.324Z,102013.19
2022-07-30T12:30:51.475Z,102023.66
2022-07-30T12:33:20.714Z,102013.34
2022-07-30T12:35:49.646Z,102011.03
2022-07-30T12:38:17.744Z,102020.16
2022-07-30T12:40:56.563Z,102013.47
2022-07-30T12:43:44.005Z,102017.84
2022-07-30T12:46:14.893Z,102014.22
2022-07-30T12:48:58.018Z,102014.91
2022-07-30T12:51:30.127Z,102010.88
2022-07-30T12:53:57.106Z,102004.66
2022-07-30T12:56:25.278Z,102005.44
2022-07-30T12:58:52.975Z,102005.78
2022-07-30T13:01:19.769Z,102007.28
2022-07-30T13:03:46.684Z,102003.03
2022-07-30T13:06:17.132Z,101998.06
2022-07-30T13:08:52.629Z,102011.28
2022-07-30T13:11:20.915Z,102010.88
2022-07-30T13:13:48.272Z,102008.25
2022-07-30T13:16:15.324Z,101999.34
2022-07-30T13:18:42.223Z,101997.94
2022-07-30T13:21:11.371Z,102002.19
2022-07-30T13:23:41.577Z,102004.06
2022-07-30T13:26:09.369Z,102006.31
2022-07-30T13:28:36.523Z,102010.69
2022-07-30T13:31:03.890Z,102018.13
2022-07-30T13:33:30.888Z,102007.53
2022-07-30T13:35:57.712Z,102014.50
2022-07-30T13:38:24.523Z,102012.78
2022-07-30T13:40:53.065Z,102015.06
2022-07-30T13:43:20.220Z,101996.59
2022-07-30T13:45:47.284Z,102001.16
2022-07-30T13:48:14.486Z,102004.47
2022-07-30T13:50:41.658Z,102004.88
2022-07-30T13:53:08.997Z,102005.25
2022-07-30T13:55:36.872Z,102002.25
2022-07-30T13:58:06.962Z,101997.53
2022-07-30T14:00:36.760Z,101991.41
2022-07-30T14:03:05.664Z,101994.03
2022-07-30T14:05:36.001Z,101992.31
2022-07-30T14:08:11.130Z,101986.22
2022-07-30T14:10:39.871Z,101979.09
2022-07-30T14:13:10.408Z,101978.34
2022-07-30T14:15:43.896Z,101970.53
2022-07-30T14:18:10.784Z,101967.09
2022-07-30T14:20:37.736Z,101965.59
2022-07-30T14:23:04.829Z,101975.19
2022-07-30T14:25:31.838Z,101973.56
2022-07-30T14:27:58.696Z,101968.69
2022-07-30T14:30:26.860Z,101967.91
2022-07-30T14:32:59.196Z,101968.34
2022-07-30T14:35:26.505Z,101971.81
2022-07-30T14:37:53.204Z,101967.34
2022-07-30T14:40:20.171Z,101955.56
2022-07-30T14:42:48.162Z,101969.72
2022-07-30T14:45:15.119Z,101973.19
2022-07-30T14:47:43.366Z,101974.09
2022-07-30T14:50:10.326Z,101974.59
2022-07-30T14:52:38.721Z,101964.56
2022-07-30T14:55:06.827Z,101950.81
2022-07-30T14:57:33.860Z,101958.97
2022-07-30T15:00:01.034Z,101956.97
2022-07-30T15:02:28.003Z,101966.91
2022-07-30T15:04:56.193Z,101965.53
2022-07-30T15:07:23.460Z,101969.41
2022-07-30T15:09:50.237Z,101968.56
2022-07-30T15:12:26.570Z,101970.22
2022-07-30T15:14:54.116Z,101968.91
2022-07-30T15:17:20.998Z,101971.13
2022-07-30T15:19:50.575Z,101964.81
2022-07-30T15:22:19.907Z,101969.38
2022-07-30T15:24:46.880Z,101965.97
2022-07-30T15:27:13.687Z,101962.03
2022-07-30T15:29:40.528Z,101959.63
2022-07-30T15:32:07.793Z,101958.56
2022-07-30T15:34:34.733Z,101954.72
2022-07-30T15:37:02.697Z,101962.94
2022-07-30T15:39:33.131Z,101959.06
2022-07-30T15:42:00.876Z,101962.81
2022-07-30T15:44:28.121Z,101958.06
2022-07-30T15:46:55.192Z,101967.84
2022-07-30T15:49:22.244Z,101970.31
2022-07-30T15:51:49.669Z,101961.25
2022-07-30T15:54:22.904Z,101967.72
2022-07-30T15:56:54.035Z,101973.69
2022-07-30T15:59:27.867Z,101965.75
2022-07-30T16:01:54.732Z,101974.34
2022-07-30T16:04:21.503Z,101965.75
2022-07-30T16:06:58.777Z,101966.97
2022-07-30T16:09:26.761Z,101962.97
2022-07-30T16:11:55.408Z,101967.66
2022-07-30T16:14:22.626Z,101962.72
2022-07-30T16:16:49.614Z,101961.72
2022-07-30T16:19:16.578Z,101967.28
2022-07-30T16:21:43.402Z,101967.78
2022-07-30T16:24:10.261Z,101954.75
2022-07-30T16:26:37.425Z,101962.94
2022-07-30T16:29:07.012Z,101962.91
2022-07-30T16:31:35.971Z,101961.03
2022-07-30T16:34:02.898Z,101957.78
2022-07-30T16:36:30.034Z,101955.09
2022-07-30T16:38:57.070Z,101950.97
2022-07-30T16:41:24.162Z,101950.97
2022-07-30T16:43:51.096Z,101950.63
2022-07-30T16:46:19.506Z,101948.78
2022-07-30T16:48:46.489Z,101942.66
2022-07-30T16:51:17.775Z,101945.28
2022-07-30T16:53:44.667Z,101942.13
2022-07-30T16:56:11.625Z,101940.31
2022-07-30T16:58:41.266Z,101940.13
2022-07-30T17:01:08.486Z,101942.44
2022-07-30T17:03:37.089Z,101939.59
2022-07-30T17:06:04.040Z,101931.66
2022-07-30T17:08:30.902Z,101937.75
2022-07-30T17:10:57.708Z,101927.66
2022-07-30T17:13:25.037Z,101937.34
2022-07-30T17:15:51.944Z,101934.63
2022-07-30T17:18:18.973Z,101937.13
2022-07-30T17:20:47.230Z,101929.78
2022-07-30T17:23:14.137Z,101928.94
2022-07-30T17:25:40.948Z,101923.81
2022-07-30T17:28:07.801Z,101917.63
2022-07-30T17:30:34.622Z,101912.31
2022-07-30T17:33:01.488Z,101916.31
2022-07-30T17:35:28.595Z,101914.09
2022-07-30T17:37:57.040Z,101906.59
2022-07-30T17:40:28.942Z,101912.00
2022-07-30T17:43:04.896Z,101902.56
2022-07-30T17:45:32.916Z,101907.16
2022-07-30T17:48:01.631Z,101896.00
2022-07-30T17:50:29.103Z,101889.81
2022-07-30T17:52:57.321Z,101894.09
2022-07-30T17:55:24.462Z,101902.69
2022-07-30T17:57:51.346Z,101903.72
2022-07-30T18:00:18.201Z,101905.22
2022-07-30T18:02:47.977Z,101901.00
2022-07-30T18:05:15.749Z,101889.44
2022-07-30T18:07:43.616Z,101893.44
2022-07-30T18:10:12.667Z,101892.66
2022-07-30T18:12:49.030Z,101883.41
2022-07-30T18:15:17.005Z,101885.00
2022-07-30T18:17:43.900Z,101873.06
2022-07-30T18:20:11.811Z,101882.84
2022-07-30T18:22:40.415Z,101887.75
2022-07-30T18:25:18.103Z,101886.94
2022-07-30T18:27:47.317Z,101892.94
2022-07-30T18:30:14.839Z,101879.16
2022-07-30T18:32:41.991Z,101877.03
2022-07-30T18:35:13.639Z,101875.94
2022-07-30T18:37:42.123Z,101878.53
2022-07-30T18:40:10.832Z,101869.88
2022-07-30T18:42:37.687Z,101872.75
2022-07-30T18:45:07.284Z,101869.06
2022-07-30T18:47:34.755Z,101873.59
2022-07-30T18:50:01.806Z,101860.84
2022-07-30T18:52:28.695Z,101870.78
2022-07-30T18:54:55.500Z,101880.06
2022-07-30T18:57:22.406Z,101880.88
2022-07-30T18:59:49.585Z,101890.28
2022-07-30T19:02:18.051Z,101885.88
2022-07-30T19:04:45.259Z,101881.88
2022-07-30T19:07:12.139Z,101888.81
2022-07-30T19:09:39.053Z,101891.81
2022-07-30T19:12:06.674Z,101895.91
2022-07-30T19:14:33.731Z,101905.28
2022-07-30T19:17:00.592Z,101899.31
2022-07-30T19:19:28.778Z,101897.03
2022-07-30T19:21:56.078Z,101902.13
2022-07-30T19:24:23.476Z,101900.69
2022-07-30T19:26:54.733Z,101901.25
2022-07-30T19:29:21.533Z,101897.28
2022-07-30T19:31:49.842Z,101900.09
2022-07-30T19:34:16.730Z,101902.78
2022-07-30T19:36:45.195Z,101898.53
2022-07-30T19:39:21.379Z,101889.41
2022-07-30T19:41:50.870Z,101894.34
2022-07-30T19:44:29.561Z,101899.72
2022-07-30T19:46:58.479Z,101903.63
2022-07-30T19:49:29.584Z,101893.34
2022-07-30T19:52:09.749Z,101892.91
2022-07-30T19:54:44.898Z,101892.44
2022-07-30T19:57:11.787Z,101889.31
2022-07-30T19:59:46.260Z,101894.81
2022-07-30T20:02:25.718Z,101893.78
2022-07-30T20:04:53.885Z,101890.06
2022-07-30T20:07:22.979Z,101895.38
2022-07-30T20:09:54.550Z,101904.00
2022-07-30T20:12:21.471Z,101900.97
2022-07-30T20:14:51.228Z,101903.19
2022-07-30T20:17:18.680Z,101895.91
2022-07-30T20:19:47.966Z,101901.28
2022-07-30T20:22:15.946Z,101900.84
2022-07-30T20:24:44.242Z,101903.31
2022-07-30T20:27:38.530Z,101903.19
2022-07-30T20:29:58.410Z,101903.69
2022-07-30T20:32:25.998Z,101911.28
2022-07-30T20:34:53.287Z,101911.81
2022-07-30T20:37:21.673Z,101914.13
2022-07-30T20:39:51.132Z,101913.53
2022-07-30T20:42:18.473Z,101915.63
2022-07-30T20:44:50.527Z,101919.91
2022-07-30T20:47:38.440Z,101914.66
2022-07-30T20:50:09.487Z,101904.50
2022-07-30T20:52:37.043Z,101920.91
2022-07-30T20:55:08.142Z,101912.94
2022-07-30T20:57:56.302Z,101913.06
2022-07-30T21:00:23.168Z,101916.75
2022-07-30T21:02:51.406Z,101919.78
2022-07-30T21:05:19.938Z,101913.25
2022-07-30T21:07:47.291Z,101910.53
2022-07-30T21:10:15.723Z,101904.91
2022-07-30T21:12:44.709Z,101905.34
2022-07-30T21:15:24.038Z,101895.56
2022-07-30T21:17:51.372Z,101906.69
2022-07-30T21:20:27.806Z,101910.47
2022-07-30T21:22:55.181Z,101903.81
2022-07-30T21:25:33.099Z,101906.28
2022-07-30T21:28:00.810Z,101896.69
2022-07-30T21:30:30.388Z,101892.56
2022-07-30T21:32:57.409Z,101894.78
2022-07-30T21:35:24.365Z,101893.13
2022-07-30T21:37:58.466Z,101895.13
2022-07-30T21:40:27.751Z,101891.91
2022-07-30T21:42:56.247Z,101897.06
2022-07-30T21:45:24.059Z,101894.25
2022-07-30T21:48:10.758Z,101891.91
2022-07-30T21:50:42.086Z,101887.56
2022-07-30T21:53:10.045Z,101887.19
2022-07-30T21:55:53.049Z,101888.75
2022-07-30T21:58:26.002Z,101888.34
2022-07-30T22:01:16.273Z,101889.06
2022-07-30T22:04:03.874Z,101891.13
2022-07-30T22:06:30.189Z,101889.72
2022-07-30T22:08:57.496Z,101880.53
2022-07-30T22:11:26.891Z,101874.75
2022-07-30T22:14:12.673Z,101873.31
2022-07-30T22:16:46.276Z,101878.75
2022-07-30T22:19:14.390Z,101879.34
2022-07-30T22:21:41.817Z,101880.50
2022-07-30T22:24:08.829Z,101883.06
2022-07-30T22:26:37.164Z,101881.50
2022-07-30T22:29:04.084Z,101888.44
2022-07-30T22:31:39.575Z,101884.63
2022-07-30T22:34:11.247Z,101882.41
2022-07-30T22:36:38.470Z,101876.59
2022-07-30T22:39:08.931Z,101878.34
2022-07-30T22:41:37.318Z,101872.72
2022-07-30T22:44:05.403Z,101865.22
2022-07-30T22:46:37.089Z,101864.94
2022-07-30T22:49:04.829Z,101851.88
2022-07-30T22:51:58.817Z,101848.00
2022-07-30T22:54:18.591Z,101858.78
2022-07-30T22:56:50.448Z,101842.25
2022-07-30T22:59:17.374Z,101860.88
2022-07-30T23:02:04.682Z,101852.97
2022-07-30T23:04:32.963Z,101857.00
2022-07-30T23:07:00.537Z,101856.00
2022-07-30T23:09:32.301Z,101847.19
2022-07-30T23:12:20.005Z,101846.91
2022-07-30T23:14:47.449Z,101840.38
2022-07-30T23:17:14.294Z,101849.47
2022-07-30T23:19:41.179Z,101847.13
2022-07-30T23:22:08.066Z,101840.56
2022-07-30T23:24:34.913Z,101844.19
2022-07-30T23:27:02.483Z,101838.94
2022-07-30T23:29:30.821Z,101838.72
2022-07-30T23:31:57.679Z,101838.13
2022-07-30T23:34:24.551Z,101841.53
2022-07-30T23:36:51.853Z,101832.06
2022-07-30T23:39:21.714Z,101842.38
2022-07-30T23:41:48.808Z,101834.56
2022-07-30T23:44:15.791Z,101838.25
2022-07-30T23:46:43.915Z,101836.53
2022-07-30T23:49:11.236Z,101843.03
2022-07-30T23:51:38.327Z,101842.84
2022-07-30T23:54:06.412Z,101830.97
2022-07-30T23:56:33.270Z,101837.34
2022-07-30T23:59:00.078Z,101830.53
